sensor_id;sensor_type;location;lat;lon;timestamp;temperature;humidity
22716;DHT22;11525;51.152;4.456;2023-05-10T00:00:13;14.50;99.90
22716;DHT22;11525;51.152;4.456;2023-05-10T00:02:39;14.50;99.90
22716;DHT22;11525;51.152;4.456;2023-05-10T00:05:05;14.60;99.90
22716;DHT22;11525;51.152;4.456;2023-05-10T00:07:31;14.50;99.90
22716;DHT22;11525;51.152;4.456;2023-05-10T00:09:57;14.60;99.90
22716;DHT22;11525;51.152;4.456;2023-05-10T00:12:23;14.50;99.90
22716;DHT22;11525;51.152;4.456;2023-05-10T00:14:48;14.50;99.90
22716;DHT22;11525;51.152;4.456;2023-05-10T00:17:14;14.50;99.90
22716;DHT22;11525;51.152;4.456;2023-05-10T00:19:40;14.50;99.90
22716;DHT22;11525;51.152;4.456;2023-05-10T00:22:06;14.50;99.90
22716;DHT22;11525;51.152;4.456;2023-05-10T00:24:31;14.50;99.90
22716;DHT22;11525;51.152;4.456;2023-05-10T00:26:57;14.60;99.90
22716;DHT22;11525;51.152;4.456;2023-05-10T00:29:23;14.70;99.90
22716;DHT22;11525;51.152;4.456;2023-05-10T00:31:49;14.50;99.90
22716;DHT22;11525;51.152;4.456;2023-05-10T00:34:14;14.50;99.90
22716;DHT22;11525;51.152;4.456;2023-05-10T00:36:40;14.50;99.90
22716;DHT22;11525;51.152;4.456;2023-05-10T00:39:06;14.50;99.90
22716;DHT22;11525;51.152;4.456;2023-05-10T00:41:32;14.60;99.90
22716;DHT22;11525;51.152;4.456;2023-05-10T00:43:58;14.60;99.90
22716;DHT22;11525;51.152;4.456;2023-05-10T00:46:24;14.60;99.90
22716;DHT22;11525;51.152;4.456;2023-05-10T00:48:51;14.50;99.90
22716;DHT22;11525;51.152;4.456;2023-05-10T00:51:18;14.40;99.90
22716;DHT22;11525;51.152;4.456;2023-05-10T00:53:47;14.50;99.90
22716;DHT22;11525;51.152;4.456;2023-05-10T00:56:13;14.50;99.90
22716;DHT22;11525;51.152;4.456;2023-05-10T00:58:42;14.30;99.90
22716;DHT22;11525;51.152;4.456;2023-05-10T01:01:09;14.30;99.90
22716;DHT22;11525;51.152;4.456;2023-05-10T01:03:36;14.30;99.90
22716;DHT22;11525;51.152;4.456;2023-05-10T01:06:02;14.40;99.90
22716;DHT22;11525;51.152;4.456;2023-05-10T01:08:28;14.40;99.90
22716;DHT22;11525;51.152;4.456;2023-05-10T01:10:55;14.40;99.90
22716;DHT22;11525;51.152;4.456;2023-05-10T01:13:31;14.40;99.90
22716;DHT22;11525;51.152;4.456;2023-05-10T01:15:58;14.40;99.90
22716;DHT22;11525;51.152;4.456;2023-05-10T01:18:26;14.30;99.90
22716;DHT22;11525;51.152;4.456;2023-05-10T01:29:42;14.20;99.90
22716;DHT22;11525;51.152;4.456;2023-05-10T01:35:03;14.30;99.90
22716;DHT22;11525;51.152;4.456;2023-05-10T01:38:04;14.20;99.90
22716;DHT22;11525;51.152;4.456;2023-05-10T01:40:32;14.30;99.90
22716;DHT22;11525;51.152;4.456;2023-05-10T01:43:04;14.20;99.90
22716;DHT22;11525;51.152;4.456;2023-05-10T01:45:47;14.20;99.90
22716;DHT22;11525;51.152;4.456;2023-05-10T01:48:16;14.20;99.90
22716;DHT22;11525;51.152;4.456;2023-05-10T01:50:45;14.30;99.90
22716;DHT22;11525;51.152;4.456;2023-05-10T01:53:13;14.30;99.90
22716;DHT22;11525;51.152;4.456;2023-05-10T01:55:46;14.20;99.90
22716;DHT22;11525;51.152;4.456;2023-05-10T01:58:21;14.20;99.90
22716;DHT22;11525;51.152;4.456;2023-05-10T02:00:49;14.30;99.90
22716;DHT22;11525;51.152;4.456;2023-05-10T02:03:18;14.20;99.90
22716;DHT22;11525;51.152;4.456;2023-05-10T02:05:48;14.20;99.90
22716;DHT22;11525;51.152;4.456;2023-05-10T02:08:15;14.30;99.90
22716;DHT22;11525;51.152;4.456;2023-05-10T02:10:44;14.30;99.90
22716;DHT22;11525;51.152;4.456;2023-05-10T02:13:11;14.20;99.90
22716;DHT22;11525;51.152;4.456;2023-05-10T02:15:41;14.20;99.90
22716;DHT22;11525;51.152;4.456;2023-05-10T02:18:09;14.10;99.90
22716;DHT22;11525;51.152;4.456;2023-05-10T02:20:37;14.20;99.90
22716;DHT22;11525;51.152;4.456;2023-05-10T02:23:04;14.20;99.90
22716;DHT22;11525;51.152;4.456;2023-05-10T02:25:31;14.20;99.90
22716;DHT22;11525;51.152;4.456;2023-05-10T02:28:01;14.30;99.90
22716;DHT22;11525;51.152;4.456;2023-05-10T02:30:29;14.30;99.90
22716;DHT22;11525;51.152;4.456;2023-05-10T02:32:56;14.20;99.90
22716;DHT22;11525;51.152;4.456;2023-05-10T02:35:23;14.10;99.90
22716;DHT22;11525;51.152;4.456;2023-05-10T02:37:50;14.10;99.90
22716;DHT22;11525;51.152;4.456;2023-05-10T02:40:16;14.10;99.90
22716;DHT22;11525;51.152;4.456;2023-05-10T02:42:44;14.00;99.90
22716;DHT22;11525;51.152;4.456;2023-05-10T02:45:13;14.10;99.90
22716;DHT22;11525;51.152;4.456;2023-05-10T02:47:40;14.10;99.90
22716;DHT22;11525;51.152;4.456;2023-05-10T02:50:06;14.10;99.90
22716;DHT22;11525;51.152;4.456;2023-05-10T02:52:51;14.10;99.90
22716;DHT22;11525;51.152;4.456;2023-05-10T02:55:22;14.10;99.90
22716;DHT22;11525;51.152;4.456;2023-05-10T02:57:57;14.20;99.90
22716;DHT22;11525;51.152;4.456;2023-05-10T03:00:24;14.20;99.90
22716;DHT22;11525;51.152;4.456;2023-05-10T03:02:50;14.00;99.90
22716;DHT22;11525;51.152;4.456;2023-05-10T03:05:16;14.00;99.90
22716;DHT22;11525;51.152;4.456;2023-05-10T03:07:41;13.90;99.90
22716;DHT22;11525;51.152;4.456;2023-05-10T03:10:08;13.80;99.90
22716;DHT22;11525;51.152;4.456;2023-05-10T03:18:22;13.80;99.90
22716;DHT22;11525;51.152;4.456;2023-05-10T03:20:50;13.90;99.90
22716;DHT22;11525;51.152;4.456;2023-05-10T03:23:26;13.80;99.90
22716;DHT22;11525;51.152;4.456;2023-05-10T03:25:53;13.80;99.90
22716;DHT22;11525;51.152;4.456;2023-05-10T03:28:20;13.80;99.90
22716;DHT22;11525;51.152;4.456;2023-05-10T03:30:47;13.80;99.90
22716;DHT22;11525;51.152;4.456;2023-05-10T03:33:13;13.90;99.90
22716;DHT22;11525;51.152;4.456;2023-05-10T03:35:39;13.90;99.90
22716;DHT22;11525;51.152;4.456;2023-05-10T03:38:05;13.90;99.90
22716;DHT22;11525;51.152;4.456;2023-05-10T03:40:30;13.90;99.90
22716;DHT22;11525;51.152;4.456;2023-05-10T03:42:58;13.90;99.90
22716;DHT22;11525;51.152;4.456;2023-05-10T03:45:24;13.90;99.90
22716;DHT22;11525;51.152;4.456;2023-05-10T03:47:50;13.80;99.90
22716;DHT22;11525;51.152;4.456;2023-05-10T03:50:15;13.80;99.90
22716;DHT22;11525;51.152;4.456;2023-05-10T03:52:41;13.80;99.90
22716;DHT22;11525;51.152;4.456;2023-05-10T03:55:07;13.70;99.90
22716;DHT22;11525;51.152;4.456;2023-05-10T03:57:33;13.70;99.90
22716;DHT22;11525;51.152;4.456;2023-05-10T03:59:59;13.60;99.90
22716;DHT22;11525;51.152;4.456;2023-05-10T04:02:25;13.70;99.90
22716;DHT22;11525;51.152;4.456;2023-05-10T04:04:51;13.80;99.90
22716;DHT22;11525;51.152;4.456;2023-05-10T04:07:16;13.90;99.90
22716;DHT22;11525;51.152;4.456;2023-05-10T04:09:49;13.90;99.90
22716;DHT22;11525;51.152;4.456;2023-05-10T04:12:15;13.90;99.90
22716;DHT22;11525;51.152;4.456;2023-05-10T04:14:41;13.90;99.90
22716;DHT22;11525;51.152;4.456;2023-05-10T04:17:06;13.90;99.90
22716;DHT22;11525;51.152;4.456;2023-05-10T04:19:32;13.80;99.90
22716;DHT22;11525;51.152;4.456;2023-05-10T04:21:58;13.80;99.90
22716;DHT22;11525;51.152;4.456;2023-05-10T04:24:24;13.90;99.90
22716;DHT22;11525;51.152;4.456;2023-05-10T04:26:50;13.90;99.90
22716;DHT22;11525;51.152;4.456;2023-05-10T04:29:16;13.90;99.90
22716;DHT22;11525;51.152;4.456;2023-05-10T04:31:42;13.90;99.90
22716;DHT22;11525;51.152;4.456;2023-05-10T04:34:07;13.90;99.90
22716;DHT22;11525;51.152;4.456;2023-05-10T04:36:33;13.90;99.90
22716;DHT22;11525;51.152;4.456;2023-05-10T04:39:01;14.00;99.90
22716;DHT22;11525;51.152;4.456;2023-05-10T04:41:28;13.90;99.90
22716;DHT22;11525;51.152;4.456;2023-05-10T04:43:54;13.90;99.90
22716;DHT22;11525;51.152;4.456;2023-05-10T04:46:20;13.90;99.90
22716;DHT22;11525;51.152;4.456;2023-05-10T04:48:45;13.90;99.90
22716;DHT22;11525;51.152;4.456;2023-05-10T04:51:11;13.80;99.90
22716;DHT22;11525;51.152;4.456;2023-05-10T04:53:37;13.90;99.90
22716;DHT22;11525;51.152;4.456;2023-05-10T04:56:03;13.90;99.90
22716;DHT22;11525;51.152;4.456;2023-05-10T04:58:29;13.90;99.90
22716;DHT22;11525;51.152;4.456;2023-05-10T05:00:55;14.00;99.90
22716;DHT22;11525;51.152;4.456;2023-05-10T05:03:20;14.00;99.90
22716;DHT22;11525;51.152;4.456;2023-05-10T05:05:47;14.00;99.90
22716;DHT22;11525;51.152;4.456;2023-05-10T05:08:13;14.10;99.90
22716;DHT22;11525;51.152;4.456;2023-05-10T05:10:39;14.00;99.90
22716;DHT22;11525;51.152;4.456;2023-05-10T05:13:04;14.10;99.90
22716;DHT22;11525;51.152;4.456;2023-05-10T05:15:30;14.20;99.90
22716;DHT22;11525;51.152;4.456;2023-05-10T05:17:56;14.30;99.90
22716;DHT22;11525;51.152;4.456;2023-05-10T05:20:22;14.50;99.90
22716;DHT22;11525;51.152;4.456;2023-05-10T05:22:48;14.50;99.90
22716;DHT22;11525;51.152;4.456;2023-05-10T05:25:14;14.60;99.90
22716;DHT22;11525;51.152;4.456;2023-05-10T05:27:40;14.60;99.90
22716;DHT22;11525;51.152;4.456;2023-05-10T05:30:07;14.60;99.90
22716;DHT22;11525;51.152;4.456;2023-05-10T05:32:33;14.60;99.90
22716;DHT22;11525;51.152;4.456;2023-05-10T05:34:58;14.60;99.90
22716;DHT22;11525;51.152;4.456;2023-05-10T05:37:24;14.60;99.90
22716;DHT22;11525;51.152;4.456;2023-05-10T05:39:50;14.60;99.90
22716;DHT22;11525;51.152;4.456;2023-05-10T05:42:16;14.70;99.90
22716;DHT22;11525;51.152;4.456;2023-05-10T05:44:44;14.60;99.90
22716;DHT22;11525;51.152;4.456;2023-05-10T05:47:10;14.60;99.90
22716;DHT22;11525;51.152;4.456;2023-05-10T05:49:36;14.70;99.90
22716;DHT22;11525;51.152;4.456;2023-05-10T05:52:03;14.70;99.90
22716;DHT22;11525;51.152;4.456;2023-05-10T05:54:29;14.80;99.90
22716;DHT22;11525;51.152;4.456;2023-05-10T05:56:56;14.70;99.90
22716;DHT22;11525;51.152;4.456;2023-05-10T05:59:23;14.70;99.90
22716;DHT22;11525;51.152;4.456;2023-05-10T06:01:49;14.70;99.90
22716;DHT22;11525;51.152;4.456;2023-05-10T06:04:15;14.60;99.90
22716;DHT22;11525;51.152;4.456;2023-05-10T06:06:41;14.60;99.90
22716;DHT22;11525;51.152;4.456;2023-05-10T06:09:07;14.60;99.90
22716;DHT22;11525;51.152;4.456;2023-05-10T06:11:34;14.70;99.90
22716;DHT22;11525;51.152;4.456;2023-05-10T06:14:00;14.80;99.90
22716;DHT22;11525;51.152;4.456;2023-05-10T06:16:27;15.10;99.90
22716;DHT22;11525;51.152;4.456;2023-05-10T06:18:52;15.20;99.90
22716;DHT22;11525;51.152;4.456;2023-05-10T06:21:18;15.20;99.90
22716;DHT22;11525;51.152;4.456;2023-05-10T06:23:43;15.20;99.90
22716;DHT22;11525;51.152;4.456;2023-05-10T06:26:09;15.30;99.90
22716;DHT22;11525;51.152;4.456;2023-05-10T06:28:35;15.40;99.90
22716;DHT22;11525;51.152;4.456;2023-05-10T06:31:03;15.50;99.90
22716;DHT22;11525;51.152;4.456;2023-05-10T06:33:29;15.90;99.90
22716;DHT22;11525;51.152;4.456;2023-05-10T06:35:55;16.20;99.90
22716;DHT22;11525;51.152;4.456;2023-05-10T06:38:21;16.50;99.90
22716;DHT22;11525;51.152;4.456;2023-05-10T06:40:47;16.40;99.90
22716;DHT22;11525;51.152;4.456;2023-05-10T06:43:13;16.50;99.90
22716;DHT22;11525;51.152;4.456;2023-05-10T06:45:38;16.40;99.90
22716;DHT22;11525;51.152;4.456;2023-05-10T06:48:04;16.20;99.90
22716;DHT22;11525;51.152;4.456;2023-05-10T06:50:30;16.20;99.90
22716;DHT22;11525;51.152;4.456;2023-05-10T06:52:55;16.20;99.90
22716;DHT22;11525;51.152;4.456;2023-05-10T06:55:21;16.10;99.90
22716;DHT22;11525;51.152;4.456;2023-05-10T06:57:47;15.90;99.90
22716;DHT22;11525;51.152;4.456;2023-05-10T07:00:13;15.90;99.90
22716;DHT22;11525;51.152;4.456;2023-05-10T07:02:39;15.70;99.90
22716;DHT22;11525;51.152;4.456;2023-05-10T07:05:05;15.80;99.90
22716;DHT22;11525;51.152;4.456;2023-05-10T07:07:31;15.90;99.90
22716;DHT22;11525;51.152;4.456;2023-05-10T07:09:57;15.90;99.90
22716;DHT22;11525;51.152;4.456;2023-05-10T07:12:24;16.00;99.90
22716;DHT22;11525;51.152;4.456;2023-05-10T07:14:49;15.90;99.90
22716;DHT22;11525;51.152;4.456;2023-05-10T07:17:15;16.00;99.90
22716;DHT22;11525;51.152;4.456;2023-05-10T07:19:41;16.30;99.90
22716;DHT22;11525;51.152;4.456;2023-05-10T07:22:07;16.20;99.90
22716;DHT22;11525;51.152;4.456;2023-05-10T07:24:33;16.30;99.90
22716;DHT22;11525;51.152;4.456;2023-05-10T07:26:59;16.30;99.90
22716;DHT22;11525;51.152;4.456;2023-05-10T07:29:25;16.60;99.90
22716;DHT22;11525;51.152;4.456;2023-05-10T07:31:50;17.50;99.90
22716;DHT22;11525;51.152;4.456;2023-05-10T07:34:16;18.90;99.90
22716;DHT22;11525;51.152;4.456;2023-05-10T07:36:42;20.30;99.90
22716;DHT22;11525;51.152;4.456;2023-05-10T07:39:08;22.90;99.90
22716;DHT22;11525;51.152;4.456;2023-05-10T07:41:33;23.30;99.90
22716;DHT22;11525;51.152;4.456;2023-05-10T07:43:59;22.70;99.90
22716;DHT22;11525;51.152;4.456;2023-05-10T07:46:25;21.90;99.90
22716;DHT22;11525;51.152;4.456;2023-05-10T07:48:51;21.30;99.90
22716;DHT22;11525;51.152;4.456;2023-05-10T07:51:16;20.60;99.90
22716;DHT22;11525;51.152;4.456;2023-05-10T07:53:42;20.20;99.90
22716;DHT22;11525;51.152;4.456;2023-05-10T07:56:27;19.70;99.90
22716;DHT22;11525;51.152;4.456;2023-05-10T07:59:02;19.10;99.90
22716;DHT22;11525;51.152;4.456;2023-05-10T08:01:33;18.50;99.90
22716;DHT22;11525;51.152;4.456;2023-05-10T08:03:59;18.10;99.90
22716;DHT22;11525;51.152;4.456;2023-05-10T08:06:25;18.00;99.90
22716;DHT22;11525;51.152;4.456;2023-05-10T08:08:55;18.20;99.90
22716;DHT22;11525;51.152;4.456;2023-05-10T08:11:21;19.20;99.90
22716;DHT22;11525;51.152;4.456;2023-05-10T08:13:48;21.10;99.90
22716;DHT22;11525;51.152;4.456;2023-05-10T08:16:15;24.00;99.90
22716;DHT22;11525;51.152;4.456;2023-05-10T08:18:41;25.90;99.90
22716;DHT22;11525;51.152;4.456;2023-05-10T08:21:07;27.10;98.90
22716;DHT22;11525;51.152;4.456;2023-05-10T08:23:33;28.00;95.10
22716;DHT22;11525;51.152;4.456;2023-05-10T08:25:59;29.60;91.20
22716;DHT22;11525;51.152;4.456;2023-05-10T08:28:25;31.10;81.40
22716;DHT22;11525;51.152;4.456;2023-05-10T08:30:50;31.30;71.80
22716;DHT22;11525;51.152;4.456;2023-05-10T08:33:18;29.40;72.90
22716;DHT22;11525;51.152;4.456;2023-05-10T08:35:43;27.20;80.20
22716;DHT22;11525;51.152;4.456;2023-05-10T08:38:09;25.40;90.50
22716;DHT22;11525;51.152;4.456;2023-05-10T08:40:37;25.00;93.30
22716;DHT22;11525;51.152;4.456;2023-05-10T08:43:06;24.40;96.00
22716;DHT22;11525;51.152;4.456;2023-05-10T08:45:35;23.00;98.50
22716;DHT22;11525;51.152;4.456;2023-05-10T08:48:02;22.40;99.90
22716;DHT22;11525;51.152;4.456;2023-05-10T08:50:31;22.60;99.90
22716;DHT22;11525;51.152;4.456;2023-05-10T08:53:00;22.50;99.90
22716;DHT22;11525;51.152;4.456;2023-05-10T08:55:26;21.80;99.90
22716;DHT22;11525;51.152;4.456;2023-05-10T08:57:52;21.40;99.90
22716;DHT22;11525;51.152;4.456;2023-05-10T09:00:18;20.90;99.90
22716;DHT22;11525;51.152;4.456;2023-05-10T09:02:45;20.50;99.90
22716;DHT22;11525;51.152;4.456;2023-05-10T09:05:13;20.10;99.90
22716;DHT22;11525;51.152;4.456;2023-05-10T09:07:41;19.80;99.90
22716;DHT22;11525;51.152;4.456;2023-05-10T09:10:08;19.80;99.90
22716;DHT22;11525;51.152;4.456;2023-05-10T09:12:35;19.70;99.90
22716;DHT22;11525;51.152;4.456;2023-05-10T09:15:02;19.80;99.90
22716;DHT22;11525;51.152;4.456;2023-05-10T09:17:29;20.10;99.90
22716;DHT22;11525;51.152;4.456;2023-05-10T09:20:02;20.50;99.90
22716;DHT22;11525;51.152;4.456;2023-05-10T09:22:30;20.20;99.90
22716;DHT22;11525;51.152;4.456;2023-05-10T09:25:10;19.80;99.90
22716;DHT22;11525;51.152;4.456;2023-05-10T09:27:37;19.10;99.90
22716;DHT22;11525;51.152;4.456;2023-05-10T09:30:04;18.70;99.90
22716;DHT22;11525;51.152;4.456;2023-05-10T09:32:44;18.20;99.90
22716;DHT22;11525;51.152;4.456;2023-05-10T09:35:18;17.70;99.90
22716;DHT22;11525;51.152;4.456;2023-05-10T09:37:46;17.50;99.90
22716;DHT22;11525;51.152;4.456;2023-05-10T09:40:20;17.30;99.90
22716;DHT22;11525;51.152;4.456;2023-05-10T09:42:54;17.20;99.90
22716;DHT22;11525;51.152;4.456;2023-05-10T09:45:21;17.30;99.90
22716;DHT22;11525;51.152;4.456;2023-05-10T09:47:47;17.40;99.90
22716;DHT22;11525;51.152;4.456;2023-05-10T09:50:13;17.60;99.90
22716;DHT22;11525;51.152;4.456;2023-05-10T09:52:57;17.90;99.90
22716;DHT22;11525;51.152;4.456;2023-05-10T09:55:39;18.00;99.90
22716;DHT22;11525;51.152;4.456;2023-05-10T09:58:06;17.90;99.90
22716;DHT22;11525;51.152;4.456;2023-05-10T10:00:40;17.50;99.90
22716;DHT22;11525;51.152;4.456;2023-05-10T10:03:12;17.10;99.90
22716;DHT22;11525;51.152;4.456;2023-05-10T10:05:40;17.20;99.90
22716;DHT22;11525;51.152;4.456;2023-05-10T10:08:08;16.90;99.90
22716;DHT22;11525;51.152;4.456;2023-05-10T10:10:34;16.80;99.90
22716;DHT22;11525;51.152;4.456;2023-05-10T10:13:00;16.70;99.90
22716;DHT22;11525;51.152;4.456;2023-05-10T10:15:26;17.00;99.90
22716;DHT22;11525;51.152;4.456;2023-05-10T10:17:53;17.60;99.90
22716;DHT22;11525;51.152;4.456;2023-05-10T10:20:21;19.30;99.90
22716;DHT22;11525;51.152;4.456;2023-05-10T10:22:47;21.00;99.90
22716;DHT22;11525;51.152;4.456;2023-05-10T10:25:15;21.00;99.90
22716;DHT22;11525;51.152;4.456;2023-05-10T10:30:27;21.00;99.90
22716;DHT22;11525;51.152;4.456;2023-05-10T10:33:10;20.80;99.90
22716;DHT22;11525;51.152;4.456;2023-05-10T10:35:39;20.80;99.90
22716;DHT22;11525;51.152;4.456;2023-05-10T10:38:07;20.80;99.90
22716;DHT22;11525;51.152;4.456;2023-05-10T10:40:34;20.40;99.90
22716;DHT22;11525;51.152;4.456;2023-05-10T10:43:25;20.30;99.90
22716;DHT22;11525;51.152;4.456;2023-05-10T10:48:50;20.00;99.90
22716;DHT22;11525;51.152;4.456;2023-05-10T10:51:17;20.00;99.90
22716;DHT22;11525;51.152;4.456;2023-05-10T10:53:43;20.10;99.90
22716;DHT22;11525;51.152;4.456;2023-05-10T10:56:13;20.40;99.90
22716;DHT22;11525;51.152;4.456;2023-05-10T10:58:41;20.60;99.90
22716;DHT22;11525;51.152;4.456;2023-05-10T11:01:10;20.60;99.90
22716;DHT22;11525;51.152;4.456;2023-05-10T11:03:36;20.40;99.90
22716;DHT22;11525;51.152;4.456;2023-05-10T11:06:02;20.50;99.90
22716;DHT22;11525;51.152;4.456;2023-05-10T11:08:32;20.40;99.90
22716;DHT22;11525;51.152;4.456;2023-05-10T11:13:29;19.90;99.90
22716;DHT22;11525;51.152;4.456;2023-05-10T11:15:55;19.20;99.90
22716;DHT22;11525;51.152;4.456;2023-05-10T11:18:30;18.90;99.90
22716;DHT22;11525;51.152;4.456;2023-05-10T11:21:00;18.70;99.90
22716;DHT22;11525;51.152;4.456;2023-05-10T11:26:08;18.30;99.90
22716;DHT22;11525;51.152;4.456;2023-05-10T11:28:40;18.10;99.90
22716;DHT22;11525;51.152;4.456;2023-05-10T11:31:06;17.80;99.90
22716;DHT22;11525;51.152;4.456;2023-05-10T11:33:43;17.70;99.90
22716;DHT22;11525;51.152;4.456;2023-05-10T11:36:16;17.70;99.90
22716;DHT22;11525;51.152;4.456;2023-05-10T11:38:42;17.60;99.90
22716;DHT22;11525;51.152;4.456;2023-05-10T11:41:09;17.40;99.90
22716;DHT22;11525;51.152;4.456;2023-05-10T11:43:37;17.40;99.90
22716;DHT22;11525;51.152;4.456;2023-05-10T11:46:05;17.30;99.90
22716;DHT22;11525;51.152;4.456;2023-05-10T11:48:31;17.40;99.90
22716;DHT22;11525;51.152;4.456;2023-05-10T11:50:57;17.40;99.90
22716;DHT22;11525;51.152;4.456;2023-05-10T11:53:25;17.40;99.90
22716;DHT22;11525;51.152;4.456;2023-05-10T11:55:51;17.40;99.90
22716;DHT22;11525;51.152;4.456;2023-05-10T11:58:18;17.50;99.90
22716;DHT22;11525;51.152;4.456;2023-05-10T12:00:44;17.60;99.90
22716;DHT22;11525;51.152;4.456;2023-05-10T12:03:11;17.50;99.90
22716;DHT22;11525;51.152;4.456;2023-05-10T12:05:37;17.40;99.90
22716;DHT22;11525;51.152;4.456;2023-05-10T12:08:13;17.30;99.90
22716;DHT22;11525;51.152;4.456;2023-05-10T12:10:39;17.50;99.90
22716;DHT22;11525;51.152;4.456;2023-05-10T12:13:05;17.80;99.90
22716;DHT22;11525;51.152;4.456;2023-05-10T12:15:32;18.10;99.90
22716;DHT22;11525;51.152;4.456;2023-05-10T12:17:58;18.30;99.90
22716;DHT22;11525;51.152;4.456;2023-05-10T12:20:26;18.40;99.90
22716;DHT22;11525;51.152;4.456;2023-05-10T12:22:54;18.40;99.90
22716;DHT22;11525;51.152;4.456;2023-05-10T12:25:22;18.40;99.90
22716;DHT22;11525;51.152;4.456;2023-05-10T12:27:52;18.40;99.90
22716;DHT22;11525;51.152;4.456;2023-05-10T12:30:22;18.30;99.90
22716;DHT22;11525;51.152;4.456;2023-05-10T12:32:48;18.20;99.90
22716;DHT22;11525;51.152;4.456;2023-05-10T12:35:14;18.20;99.90
22716;DHT22;11525;51.152;4.456;2023-05-10T12:37:41;18.10;99.90
22716;DHT22;11525;51.152;4.456;2023-05-10T12:40:08;18.00;99.90
22716;DHT22;11525;51.152;4.456;2023-05-10T12:42:35;18.00;99.90
22716;DHT22;11525;51.152;4.456;2023-05-10T12:45:02;18.10;99.90
22716;DHT22;11525;51.152;4.456;2023-05-10T12:47:28;18.10;99.90
22716;DHT22;11525;51.152;4.456;2023-05-10T12:49:53;18.10;99.90
22716;DHT22;11525;51.152;4.456;2023-05-10T12:52:19;18.10;99.90
22716;DHT22;11525;51.152;4.456;2023-05-10T12:54:45;18.10;99.90
22716;DHT22;11525;51.152;4.456;2023-05-10T12:57:12;18.30;99.90
22716;DHT22;11525;51.152;4.456;2023-05-10T12:59:38;18.10;99.90
22716;DHT22;11525;51.152;4.456;2023-05-10T13:02:03;18.30;99.90
22716;DHT22;11525;51.152;4.456;2023-05-10T13:04:29;18.40;99.90
22716;DHT22;11525;51.152;4.456;2023-05-10T13:06:54;18.40;99.90
22716;DHT22;11525;51.152;4.456;2023-05-10T13:09:27;18.50;99.90
22716;DHT22;11525;51.152;4.456;2023-05-10T13:11:54;18.60;99.90
22716;DHT22;11525;51.152;4.456;2023-05-10T13:14:20;18.70;99.90
22716;DHT22;11525;51.152;4.456;2023-05-10T13:16:47;18.70;99.90
22716;DHT22;11525;51.152;4.456;2023-05-10T13:19:13;18.80;99.90
22716;DHT22;11525;51.152;4.456;2023-05-10T13:21:39;18.70;99.90
22716;DHT22;11525;51.152;4.456;2023-05-10T13:24:06;18.80;99.90
22716;DHT22;11525;51.152;4.456;2023-05-10T13:26:32;18.70;99.90
22716;DHT22;11525;51.152;4.456;2023-05-10T13:28:58;18.70;99.90
22716;DHT22;11525;51.152;4.456;2023-05-10T13:31:24;18.60;99.90
22716;DHT22;11525;51.152;4.456;2023-05-10T13:33:49;18.70;99.90
22716;DHT22;11525;51.152;4.456;2023-05-10T13:36:15;18.70;99.90
22716;DHT22;11525;51.152;4.456;2023-05-10T13:38:41;18.70;99.90
22716;DHT22;11525;51.152;4.456;2023-05-10T13:41:07;18.70;99.90
22716;DHT22;11525;51.152;4.456;2023-05-10T13:43:32;18.70;99.90
22716;DHT22;11525;51.152;4.456;2023-05-10T13:45:58;18.80;99.90
22716;DHT22;11525;51.152;4.456;2023-05-10T13:48:24;18.70;99.90
22716;DHT22;11525;51.152;4.456;2023-05-10T13:50:49;18.90;99.90
22716;DHT22;11525;51.152;4.456;2023-05-10T13:53:15;18.70;99.90
22716;DHT22;11525;51.152;4.456;2023-05-10T13:55:41;18.70;99.90
22716;DHT22;11525;51.152;4.456;2023-05-10T13:58:06;18.70;99.90
22716;DHT22;11525;51.152;4.456;2023-05-10T14:00:32;18.70;99.90
22716;DHT22;11525;51.152;4.456;2023-05-10T14:02:58;18.70;99.90
22716;DHT22;11525;51.152;4.456;2023-05-10T14:05:24;18.70;99.90
22716;DHT22;11525;51.152;4.456;2023-05-10T14:07:50;18.70;99.90
22716;DHT22;11525;51.152;4.456;2023-05-10T14:10:16;18.70;99.90
22716;DHT22;11525;51.152;4.456;2023-05-10T14:12:42;18.50;99.90
22716;DHT22;11525;51.152;4.456;2023-05-10T14:15:08;18.30;99.90
22716;DHT22;11525;51.152;4.456;2023-05-10T14:17:35;18.00;99.90
22716;DHT22;11525;51.152;4.456;2023-05-10T14:20:01;17.90;99.90
22716;DHT22;11525;51.152;4.456;2023-05-10T14:22:27;17.90;99.90
22716;DHT22;11525;51.152;4.456;2023-05-10T14:24:53;17.70;99.90
22716;DHT22;11525;51.152;4.456;2023-05-10T14:27:19;17.90;99.90
22716;DHT22;11525;51.152;4.456;2023-05-10T14:29:44;17.80;99.90
22716;DHT22;11525;51.152;4.456;2023-05-10T14:32:10;17.90;99.90
22716;DHT22;11525;51.152;4.456;2023-05-10T14:34:36;18.10;99.90
22716;DHT22;11525;51.152;4.456;2023-05-10T14:37:01;18.10;99.90
22716;DHT22;11525;51.152;4.456;2023-05-10T14:39:27;18.10;99.90
22716;DHT22;11525;51.152;4.456;2023-05-10T14:41:55;18.20;99.90
22716;DHT22;11525;51.152;4.456;2023-05-10T14:44:21;18.40;99.90
22716;DHT22;11525;51.152;4.456;2023-05-10T14:46:47;18.70;99.90
22716;DHT22;11525;51.152;4.456;2023-05-10T14:49:13;19.00;99.90
22716;DHT22;11525;51.152;4.456;2023-05-10T14:51:39;19.30;99.90
22716;DHT22;11525;51.152;4.456;2023-05-10T14:54:05;19.30;99.90
22716;DHT22;11525;51.152;4.456;2023-05-10T14:56:31;19.40;99.90
22716;DHT22;11525;51.152;4.456;2023-05-10T14:58:57;19.40;99.90
22716;DHT22;11525;51.152;4.456;2023-05-10T15:01:23;19.40;99.90
22716;DHT22;11525;51.152;4.456;2023-05-10T15:03:48;19.20;99.90
22716;DHT22;11525;51.152;4.456;2023-05-10T15:06:14;18.90;99.90
22716;DHT22;11525;51.152;4.456;2023-05-10T15:08:43;18.40;99.90
22716;DHT22;11525;51.152;4.456;2023-05-10T15:11:09;17.80;99.90
22716;DHT22;11525;51.152;4.456;2023-05-10T15:13:34;17.40;99.90
22716;DHT22;11525;51.152;4.456;2023-05-10T15:16:01;17.00;99.90
22716;DHT22;11525;51.152;4.456;2023-05-10T15:18:26;16.50;99.90
22716;DHT22;11525;51.152;4.456;2023-05-10T15:20:52;16.50;99.90
22716;DHT22;11525;51.152;4.456;2023-05-10T15:23:18;16.30;99.90
22716;DHT22;11525;51.152;4.456;2023-05-10T15:25:44;16.30;99.90
22716;DHT22;11525;51.152;4.456;2023-05-10T15:28:09;16.30;99.90
22716;DHT22;11525;51.152;4.456;2023-05-10T15:30:35;16.30;99.90
22716;DHT22;11525;51.152;4.456;2023-05-10T15:33:01;16.30;99.90
22716;DHT22;11525;51.152;4.456;2023-05-10T15:35:27;16.40;99.90
22716;DHT22;11525;51.152;4.456;2023-05-10T15:37:52;16.40;99.90
22716;DHT22;11525;51.152;4.456;2023-05-10T15:40:18;16.40;99.90
22716;DHT22;11525;51.152;4.456;2023-05-10T15:42:44;16.30;99.90
22716;DHT22;11525;51.152;4.456;2023-05-10T15:45:10;16.60;99.90
22716;DHT22;11525;51.152;4.456;2023-05-10T15:47:36;16.70;99.90
22716;DHT22;11525;51.152;4.456;2023-05-10T15:50:05;16.80;99.90
22716;DHT22;11525;51.152;4.456;2023-05-10T15:52:31;17.10;99.90
22716;DHT22;11525;51.152;4.456;2023-05-10T15:54:57;17.20;99.90
22716;DHT22;11525;51.152;4.456;2023-05-10T15:57:22;17.20;99.90